Time;durP1;ratioP1;P1;durP2;ratioP2;P2;SDS_P1;SDS_P2;PMS_P1;PMS_P2;Temp;Humidity;BMP_temperature;BMP_pressure;BME280_temperature;BME280_humidity;BME280_pressure;Samples;Min_cycle;Max_cycle;Signal;HPM_P1;HPM_P2
2022/10/17 00:00:48;;;;;;;2.60;1.77;;;16.80;75.90;17.10;97075.00;;;;5053730;28;20283;-88
2022/10/17 00:03:17;;;;;;;1.70;1.60;;;16.80;76.40;17.10;97061.00;;;;5053089;28;20776;-88
2022/10/17 00:05:46;;;;;;;1.87;1.63;;;16.80;76.30;17.10;97076.00;;;;5052865;28;20287;-89
2022/10/17 00:08:16;;;;;;;1.73;1.63;;;16.80;76.20;17.10;97064.00;;;;5052973;28;20200;-88
2022/10/17 00:10:44;;;;;;;1.70;1.60;;;16.80;76.10;17.10;97065.00;;;;5051281;28;20243;-88
2022/10/17 00:13:12;;;;;;;1.93;1.83;;;16.80;76.00;17.10;97070.00;;;;5054674;28;20701;-88
2022/10/17 00:15:44;;;;;;;1.73;1.63;;;16.80;76.00;17.10;97067.00;;;;5057328;28;20224;-88
2022/10/17 00:18:12;;;;;;;2.37;1.83;;;16.80;76.00;17.10;97073.00;;;;5052278;28;20193;-88
2022/10/17 00:20:39;;;;;;;2.07;1.67;;;16.70;75.80;17.10;97074.00;;;;5053871;28;20197;-86
2022/10/17 00:23:06;;;;;;;2.87;1.87;;;16.80;75.80;17.00;97070.00;;;;5054577;28;20319;-86
2022/10/17 00:25:33;;;;;;;1.80;1.70;;;16.80;75.80;17.00;97075.00;;;;5053794;28;20303;-86
2022/10/17 00:28:00;;;;;;;1.67;1.40;;;16.80;75.80;17.00;97074.00;;;;5056015;28;20197;-86
2022/10/17 00:30:27;;;;;;;2.27;1.70;;;16.70;75.60;17.00;97081.00;;;;5063684;28;20224;-88
2022/10/17 00:32:56;;;;;;;2.07;1.60;;;16.70;75.60;17.00;97085.00;;;;5058994;28;20195;-88
2022/10/17 00:35:23;;;;;;;1.87;1.70;;;16.70;75.60;17.00;97075.00;;;;5054841;28;20244;-89
2022/10/17 00:37:50;;;;;;;2.30;1.83;;;16.70;75.60;16.90;97079.00;;;;5050587;28;20227;-88
2022/10/17 00:40:17;;;;;;;2.37;1.97;;;16.70;75.60;16.90;97084.00;;;;5055418;28;20287;-89
2022/10/17 00:42:44;;;;;;;2.43;1.50;;;16.60;75.50;16.90;97078.00;;;;5055512;28;20287;-88
2022/10/17 00:45:23;;;;;;;2.00;1.73;;;16.60;75.60;16.90;97083.00;;;;5053375;28;20259;-88
2022/10/17 00:47:58;;;;;;;2.47;1.40;;;16.60;75.70;16.90;97082.00;;;;5053816;28;20306;-88
2022/10/17 00:50:26;;;;;;;2.03;1.70;;;16.60;75.60;16.80;97087.00;;;;5054285;28;20289;-89
2022/10/17 00:52:57;;;;;;;1.40;1.30;;;16.60;75.60;16.80;97072.00;;;;5053475;28;20224;-89
2022/10/17 00:55:30;;;;;;;2.33;1.80;;;16.60;75.60;16.80;97081.00;;;;5050162;28;20248;-88
2022/10/17 00:57:59;;;;;;;1.97;1.50;;;16.50;75.50;16.80;97083.00;;;;5052448;28;20279;-88
2022/10/17 01:00:27;;;;;;;1.83;1.60;;;16.50;75.50;16.70;97077.00;;;;5053203;28;20208;-88
2022/10/17 01:02:55;;;;;;;2.00;1.40;;;16.50;75.50;16.70;97080.00;;;;5051486;28;20203;-88
2022/10/17 01:05:22;;;;;;;1.40;1.30;;;16.50;75.60;16.70;97078.00;;;;5049067;28;20307;-88
2022/10/17 01:07:52;;;;;;;4.77;1.60;;;16.50;75.50;16.70;97076.00;;;;5049841;28;20200;-88
2022/10/17 01:10:21;;;;;;;1.67;1.50;;;16.40;75.40;16.70;97076.00;;;;5052106;28;20280;-88
2022/10/17 01:13:07;;;;;;;5.03;1.80;;;16.40;76.20;16.70;97076.00;;;;5052390;28;20189;-87
2022/10/17 01:15:51;;;;;;;1.53;1.43;;;16.40;75.50;16.60;97077.00;;;;5046546;28;20315;-86
2022/10/17 01:18:37;;;;;;;1.67;1.57;;;16.40;75.50;16.60;97079.00;;;;5050763;28;20208;-86
2022/10/17 01:21:30;;;;;;;2.10;1.80;;;16.40;75.60;16.60;97071.00;;;;5051758;28;20197;-87
2022/10/17 01:24:47;;;;;;;2.37;1.23;;;16.40;75.60;16.60;97070.00;;;;5050253;28;20220;-86
2022/10/17 01:28:04;;;;;;;2.67;1.60;;;16.30;75.80;16.50;97072.00;;;;5049686;28;20193;-86
2022/10/17 01:31:09;;;;;;;2.60;1.40;;;16.30;75.80;16.50;97074.00;;;;5048313;28;20192;-86
2022/10/17 01:33:53;;;;;;;2.00;1.70;;;16.30;76.10;16.50;97073.00;;;;5051046;28;20234;-85
2022/10/17 01:36:39;;;;;;;4.63;2.40;;;16.30;76.10;16.50;97068.00;;;;5060764;28;20572;-86
2022/10/17 01:39:23;;;;;;;10.93;3.27;;;16.30;76.30;16.50;97068.00;;;;5049997;28;20292;-86
2022/10/17 01:42:00;;;;;;;11.57;3.23;;;16.30;76.70;16.50;97067.00;;;;5049974;28;20290;-86
2022/10/17 01:44:36;;;;;;;6.10;2.87;;;16.30;76.80;16.50;97066.00;;;;5050809;28;20315;-87
2022/10/17 01:47:10;;;;;;;3.63;3.03;;;16.30;77.10;16.50;97072.00;;;;5051188;28;20279;-86
2022/10/17 01:49:43;;;;;;;8.90;2.90;;;16.30;77.30;16.50;97068.00;;;;5048345;28;20295;-87
2022/10/17 01:52:15;;;;;;;8.63;2.90;;;16.30;77.30;16.50;97065.00;;;;5049839;28;20296;-86
2022/10/17 01:54:47;;;;;;;3.93;2.60;;;16.30;77.40;16.50;97063.00;;;;5052129;28;20303;-86
2022/10/17 01:57:23;;;;;;;5.43;3.20;;;16.30;78.10;16.50;97065.00;;;;5052144;28;20211;-87
2022/10/17 01:59:54;;;;;;;5.40;2.33;;;16.30;77.60;16.50;97065.00;;;;5051663;28;20239;-87
2022/10/17 02:02:26;;;;;;;4.60;2.33;;;16.30;77.90;16.50;97065.00;;;;5048715;28;20280;-87
2022/10/17 02:04:56;;;;;;;3.17;2.40;;;16.30;78.00;16.50;97063.00;;;;5051071;28;20310;-87
2022/10/17 02:07:23;;;;;;;2.63;2.30;;;16.30;78.10;16.50;97063.00;;;;5050093;28;20199;-87
2022/10/17 02:09:51;;;;;;;6.13;3.53;;;16.30;78.20;16.50;97058.00;;;;5051721;28;20204;-87
2022/10/17 02:12:45;;;;;;;4.10;3.03;;;16.30;78.90;16.50;97062.00;;;;5051302;28;20625;-87
2022/10/17 02:16:06;;;;;;;3.43;2.60;;;16.30;78.50;16.50;97065.00;;;;5049788;28;20311;-87
2022/10/17 02:19:10;;;;;;;2.60;2.40;;;16.30;78.50;16.60;97065.00;;;;5034426;28;20235;-86
2022/10/17 02:21:48;;;;;;;6.43;2.20;;;16.30;78.40;16.60;97063.00;;;;5046840;28;20204;-86
2022/10/17 02:24:27;;;;;;;2.87;2.10;;;16.30;78.50;16.60;97063.00;;;;5051201;28;20228;-87
2022/10/17 02:27:04;;;;;;;6.97;2.00;;;16.30;78.70;16.60;97066.00;;;;5043860;28;20275;-87
2022/10/17 02:29:38;;;;;;;2.67;2.17;;;16.30;78.90;16.60;97067.00;;;;5050835;28;20206;-87
2022/10/17 02:32:16;;;;;;;2.20;1.80;;;16.30;79.10;16.70;97073.00;;;;5049135;28;20569;-87
2022/10/17 02:34:50;;;;;;;4.20;1.67;;;16.30;79.10;16.70;97070.00;;;;5045182;28;20235;-87
2022/10/17 02:37:23;;;;;;;6.97;1.57;;;16.40;79.40;16.70;97070.00;;;;5048963;28;20192;-87
2022/10/17 02:39:52;;;;;;;6.70;1.40;;;16.40;79.40;16.70;97068.00;;;;5048822;28;20189;-86
2022/10/17 02:42:22;;;;;;;6.10;1.47;;;16.40;80.10;16.70;97068.00;;;;5049315;28;20200;-87
2022/10/17 02:44:50;;;;;;;3.73;1.40;;;16.40;79.50;16.70;97079.00;;;;5048853;28;20220;-87
2022/10/17 02:47:25;;;;;;;1.67;1.20;;;16.40;79.60;16.70;97074.00;;;;5049745;28;20204;-87
2022/10/17 02:49:58;;;;;;;2.43;1.13;;;16.40;79.80;16.70;97080.00;;;;5048128;28;20200;-86
2022/10/17 02:52:33;;;;;;;6.23;1.17;;;16.40;79.60;16.60;97075.00;;;;5051489;28;20212;-87
2022/10/17 02:55:09;;;;;;;0.87;0.80;;;16.40;79.40;16.60;97075.00;;;;5059825;28;20251;-87
2022/10/17 02:57:40;;;;;;;0.90;0.90;;;16.40;79.30;16.60;97070.00;;;;5048610;28;20673;-86
2022/10/17 03:00:14;;;;;;;0.97;0.97;;;16.40;79.10;16.60;97078.00;;;;5046907;28;20669;-86
2022/10/17 03:02:45;;;;;;;0.93;0.93;;;16.40;79.10;16.60;97085.00;;;;5047761;28;20212;-87
2022/10/17 03:05:18;;;;;;;1.00;1.00;;;16.40;78.90;16.60;97087.00;;;;5050187;28;20693;-87
2022/10/17 03:07:46;;;;;;;1.13;1.10;;;16.40;78.80;16.60;97083.00;;;;5050147;28;20669;-87
2022/10/17 03:10:13;;;;;;;1.43;1.33;;;16.30;79.20;16.60;97083.00;;;;5050964;28;20232;-87
2022/10/17 03:12:40;;;;;;;0.90;0.90;;;16.30;78.50;16.60;97085.00;;;;5050877;28;20288;-86
2022/10/17 03:15:09;;;;;;;1.40;1.30;;;16.30;78.30;16.50;97085.00;;;;5049789;28;20309;-87
2022/10/17 03:17:37;;;;;;;1.47;1.37;;;16.30;78.30;16.50;97083.00;;;;5049803;28;20729;-87
2022/10/17 03:20:05;;;;;;;1.00;1.00;;;16.30;78.40;16.50;97091.00;;;;5050463;28;20287;-87
2022/10/17 03:22:34;;;;;;;1.50;1.40;;;16.30;78.50;16.50;97091.00;;;;5051914;28;20284;-87
2022/10/17 03:25:01;;;;;;;1.00;1.00;;;16.30;78.30;16.50;97100.00;;;;5058574;28;20296;-87
2022/10/17 03:27:28;;;;;;;1.07;1.07;;;16.30;77.90;16.50;97093.00;;;;5063561;28;20212;-88
2022/10/17 03:29:56;;;;;;;1.27;1.20;;;16.30;77.80;16.50;97089.00;;;;5054719;28;20201;-87
2022/10/17 03:32:23;;;;;;;1.60;1.13;;;16.20;78.30;16.40;97084.00;;;;5045369;28;20243;-87
2022/10/17 03:34:50;;;;;;;1.00;1.00;;;16.20;77.50;16.40;97087.00;;;;5047961;28;20267;-87
2022/10/17 03:37:17;;;;;;;1.17;1.07;;;16.20;77.50;16.40;97088.00;;;;5049183;28;20577;-87
2022/10/17 03:39:46;;;;;;;1.77;1.10;;;16.20;77.40;16.40;97087.00;;;;5053320;28;20237;-87
2022/10/17 03:42:13;;;;;;;1.33;1.23;;;16.10;78.20;16.40;97094.00;;;;5055000;28;20211;-87
2022/10/17 03:44:40;;;;;;;1.70;1.60;;;16.10;77.60;16.40;97086.00;;;;5053956;28;20307;-87
2022/10/17 03:47:07;;;;;;;1.73;1.13;;;16.10;77.60;16.40;97085.00;;;;5052109;28;20236;-87
2022/10/17 03:49:34;;;;;;;1.10;1.10;;;16.10;78.30;16.30;97086.00;;;;5054061;28;20693;-87
2022/10/17 03:52:01;;;;;;;1.17;1.07;;;16.10;77.60;16.30;97093.00;;;;5047485;28;20233;-87
2022/10/17 03:54:28;;;;;;;2.60;1.00;;;16.10;77.80;16.30;97087.00;;;;5048885;28;20274;-87
2022/10/17 03:56:57;;;;;;;1.57;1.07;;;16.10;77.60;16.30;97092.00;;;;5072928;22;20236;-84
2022/10/17 03:59:24;;;;;;;1.33;1.03;;;16.10;77.50;16.30;97095.00;;;;5059992;28;20188;-84
2022/10/17 04:01:51;;;;;;;1.37;1.23;;;16.10;77.40;16.30;97095.00;;;;5073394;28;20223;-84
2022/10/17 04:04:18;;;;;;;1.20;1.20;;;16.00;77.20;16.20;97098.00;;;;5075336;28;20235;-84
2022/10/17 04:06:45;;;;;;;1.07;1.07;;;16.00;77.10;16.20;97098.00;;;;5073701;28;20331;-84
2022/10/17 04:09:12;;;;;;;6.83;1.70;;;16.00;77.10;16.20;97103.00;;;;5071348;28;20228;-84
2022/10/17 04:11:39;;;;;;;1.47;1.37;;;16.00;77.20;16.20;97098.00;;;;5055117;28;20275;-84
2022/10/17 04:14:09;;;;;;;2.90;1.50;;;16.00;77.50;16.20;97115.00;;;;5064002;28;20251;-84
2022/10/17 04:16:36;;;;;;;2.53;1.50;;;16.00;77.60;16.10;97114.00;;;;5062810;28;20574;-84
2022/10/17 04:19:03;;;;;;;4.53;1.37;;;15.90;77.60;16.10;97114.00;;;;5069811;28;20275;-84
2022/10/17 04:21:30;;;;;;;3.23;1.37;;;15.90;77.80;16.10;97115.00;;;;5066453;28;20201;-84
2022/10/17 04:24:00;;;;;;;6.60;1.60;;;15.90;77.90;16.10;97110.00;;;;5074550;28;20204;-84
2022/10/17 04:26:28;;;;;;;2.83;1.23;;;15.90;78.00;16.10;97114.00;;;;5073420;28;20288;-84
2022/10/17 04:28:55;;;;;;;2.30;1.50;;;15.90;78.00;16.10;97112.00;;;;5063049;28;20215;-84
2022/10/17 04:31:23;;;;;;;1.40;1.13;;;15.90;78.00;16.10;97111.00;;;;5067728;28;20227;-85
2022/10/17 04:33:51;;;;;;;1.57;1.47;;;15.90;77.90;16.10;97116.00;;;;5054604;28;20188;-86
2022/10/17 04:36:21;;;;;;;1.70;1.60;;;15.90;77.80;16.10;97127.00;;;;5061219;28;20211;-85
2022/10/17 04:38:49;;;;;;;1.60;1.50;;;15.90;77.60;16.00;97122.00;;;;5073828;28;20287;-85
2022/10/17 04:41:18;;;;;;;3.43;1.70;;;15.80;77.50;16.00;97118.00;;;;5074318;28;20283;-85
2022/10/17 04:43:46;;;;;;;3.63;1.80;;;15.80;77.50;16.00;97112.00;;;;5073606;28;20725;-85
2022/10/17 04:46:15;;;;;;;3.90;2.10;;;15.80;77.40;16.00;97109.00;;;;5061957;28;20246;-85
2022/10/17 04:48:43;;;;;;;2.50;1.60;;;15.80;77.60;15.90;97120.00;;;;5073204;28;20258;-85
2022/10/17 04:51:13;;;;;;;2.90;2.00;;;15.80;77.60;15.90;97124.00;;;;5069289;28;20794;-87
2022/10/17 04:53:42;;;;;;;1.63;1.53;;;15.70;77.70;15.90;97123.00;;;;5068846;28;20207;-86
2022/10/17 04:56:12;;;;;;;2.77;1.50;;;15.70;78.70;15.90;97121.00;;;;5056758;28;20201;-85
2022/10/17 04:58:41;;;;;;;1.70;1.50;;;15.70;78.00;15.90;97131.00;;;;5072362;28;20231;-85
2022/10/17 05:01:11;;;;;;;1.80;1.70;;;15.70;78.10;15.90;97131.00;;;;5057740;28;20291;-84
2022/10/17 05:03:38;;;;;;;1.90;1.50;;;15.70;78.10;15.90;97136.00;;;;5074089;28;20200;-84
2022/10/17 05:06:10;;;;;;;1.93;1.10;;;15.70;78.00;15.90;97135.00;;;;5073491;28;20310;-84
2022/10/17 05:08:38;;;;;;;1.30;1.20;;;15.70;78.00;15.90;97132.00;;;;5054041;28;20711;-85
2022/10/17 05:11:06;;;;;;;2.30;1.57;;;15.70;77.90;15.90;97139.00;;;;5061495;28;20223;-84
2022/10/17 05:13:34;;;;;;;1.40;1.30;;;15.50;77.70;15.80;97138.00;;;;5073712;28;20289;-85
2022/10/17 05:16:02;;;;;;;1.60;1.50;;;15.70;77.70;15.80;97137.00;;;;5063860;28;20599;-84
2022/10/17 05:18:29;;;;;;;2.03;1.50;;;15.60;77.40;15.80;97143.00;;;;5073195;28;20222;-84
2022/10/17 05:20:57;;;;;;;1.83;1.57;;;15.60;77.30;15.80;97132.00;;;;5054706;28;20251;-84
2022/10/17 05:23:26;;;;;;;1.73;1.63;;;15.60;77.90;15.70;97134.00;;;;5066026;28;20239;-84
2022/10/17 05:25:56;;;;;;;1.40;1.30;;;15.60;77.10;15.70;97137.00;;;;5061961;28;20278;-84
2022/10/17 05:28:24;;;;;;;1.57;1.40;;;15.60;77.00;15.70;97143.00;;;;5062121;28;20312;-85
2022/10/17 05:30:51;;;;;;;2.60;1.73;;;15.50;76.80;15.60;97142.00;;;;5061634;28;20271;-85
2022/10/17 05:33:21;;;;;;;1.83;1.30;;;15.50;76.80;15.60;97143.00;;;;5064825;28;20648;-85
2022/10/17 05:35:48;;;;;;;2.73;1.63;;;15.50;76.70;15.60;97146.00;;;;5056320;28;20697;-84
2022/10/17 05:38:15;;;;;;;1.70;1.50;;;15.40;76.60;15.50;97155.00;;;;5073231;28;20212;-85
2022/10/17 05:40:44;;;;;;;2.17;1.70;;;15.40;76.70;15.50;97156.00;;;;5073681;28;20200;-86
2022/10/17 05:43:11;;;;;;;7.07;2.30;;;15.40;76.80;15.50;97170.00;;;;5065008;28;20196;-85
2022/10/17 05:45:38;;;;;;;8.77;2.13;;;15.40;76.90;15.50;97165.00;;;;5068770;28;20323;-84
2022/10/17 05:48:05;;;;;;;6.67;1.80;;;15.30;77.10;15.40;97161.00;;;;5073056;28;20306;-85
2022/10/17 05:50:33;;;;;;;4.20;2.70;;;15.30;77.40;15.40;97161.00;;;;5067670;28;20537;-85
2022/10/17 05:53:00;;;;;;;3.20;2.63;;;15.30;77.50;15.50;97158.00;;;;5065383;28;20227;-86
2022/10/17 05:55:27;;;;;;;3.60;2.20;;;15.20;77.30;15.50;97165.00;;;;5066032;28;20700;-86
2022/10/17 05:57:57;;;;;;;3.20;2.50;;;15.20;77.30;15.50;97166.00;;;;5071990;28;20251;-84
2022/10/17 06:00:24;;;;;;;2.60;2.40;;;15.20;77.30;15.50;97170.00;;;;5071723;28;20200;-84
2022/10/17 06:02:51;;;;;;;3.00;2.80;;;15.20;77.30;15.50;97183.00;;;;5066470;28;20279;-87
2022/10/17 06:05:19;;;;;;;3.13;2.87;;;15.20;77.30;15.50;97181.00;;;;5068457;28;20228;-87
2022/10/17 06:07:46;;;;;;;3.10;2.63;;;15.20;77.20;15.50;97174.00;;;;5072039;28;20582;-86
2022/10/17 06:10:15;;;;;;;2.23;2.03;;;15.20;77.40;15.50;97182.00;;;;5072073;28;20214;-87
2022/10/17 06:12:42;;;;;;;2.97;2.47;;;15.20;77.50;15.50;97181.00;;;;5068205;28;20249;-86
2022/10/17 06:15:12;;;;;;;2.73;2.07;;;15.20;77.60;15.50;97183.00;;;;5068957;28;20704;-86
2022/10/17 06:17:39;;;;;;;2.50;2.20;;;15.20;77.70;15.50;97182.00;;;;5072859;28;20711;-87
2022/10/17 06:20:08;;;;;;;3.93;2.23;;;15.20;77.80;15.50;97188.00;;;;5060537;28;20283;-87
2022/10/17 06:22:35;;;;;;;2.37;2.17;;;15.20;77.70;15.50;97189.00;;;;5062889;28;20287;-87
2022/10/17 06:25:02;;;;;;;2.20;1.70;;;15.20;77.70;15.50;97198.00;;;;5067690;28;20242;-87
2022/10/17 06:27:30;;;;;;;2.10;1.43;;;15.20;77.80;15.50;97194.00;;;;5067558;28;20247;-87
2022/10/17 06:29:57;;;;;;;2.40;1.30;;;15.20;77.80;15.50;97205.00;;;;5069385;28;20581;-87
2022/10/17 06:32:26;;;;;;;1.40;1.30;;;15.20;77.80;15.50;97204.00;;;;5068262;28;20646;-87
2022/10/17 06:34:53;;;;;;;1.43;1.33;;;15.20;77.90;15.50;97204.00;;;;5071410;28;20199;-88
2022/10/17 06:37:20;;;;;;;2.17;1.50;;;15.20;77.90;15.50;97206.00;;;;5066654;28;20277;-87
2022/10/17 06:39:47;;;;;;;1.00;1.00;;;15.20;77.90;15.50;97209.00;;;;5070539;28;20235;-88
2022/10/17 06:42:14;;;;;;;1.20;1.10;;;15.20;78.00;15.50;97197.00;;;;5061523;28;20197;-88
2022/10/17 06:44:41;;;;;;;1.40;1.13;;;15.20;78.10;15.50;97199.00;;;;5067208;28;20201;-88
2022/10/17 06:47:09;;;;;;;3.40;1.00;;;15.20;78.20;15.50;97207.00;;;;5069002;28;20228;-88
2022/10/17 06:49:38;;;;;;;1.10;1.10;;;15.20;78.60;15.60;97203.00;;;;5064080;28;20712;-88
2022/10/17 06:52:05;;;;;;;1.33;1.13;;;15.20;78.50;15.60;97209.00;;;;5071296;28;20220;-88
2022/10/17 06:54:32;;;;;;;1.30;1.20;;;15.20;78.70;15.60;97206.00;;;;5069344;28;20239;-87
2022/10/17 06:56:59;;;;;;;1.40;1.30;;;15.30;78.90;15.70;97218.00;;;;5063703;28;20654;-88
2022/10/17 06:59:26;;;;;;;1.73;1.20;;;15.30;79.10;15.70;97216.00;;;;5067355;28;20205;-88
2022/10/17 07:01:54;;;;;;;4.83;1.00;;;15.30;79.20;15.80;97225.00;;;;5073441;28;20640;-85
2022/10/17 07:04:21;;;;;;;1.20;1.10;;;15.40;79.50;15.80;97215.00;;;;5072250;28;20265;-87
2022/10/17 07:06:49;;;;;;;4.37;1.13;;;15.40;79.80;15.90;97226.00;;;;5069355;28;20220;-87
2022/10/17 07:09:16;;;;;;;1.27;1.17;;;15.40;79.90;15.90;97224.00;;;;5073717;28;20626;-87
2022/10/17 07:11:44;;;;;;;4.20;1.00;;;15.50;80.20;16.00;97227.00;;;;5072313;28;20214;-89
2022/10/17 07:14:11;;;;;;;1.60;1.20;;;15.50;80.30;16.00;97233.00;;;;5073087;28;20235;-90
2022/10/17 07:16:38;;;;;;;0.90;0.90;;;15.60;80.40;16.10;97230.00;;;;5076129;28;20265;-88
2022/10/17 07:19:05;;;;;;;0.70;0.70;;;15.60;80.60;16.20;97243.00;;;;5073342;28;20215;-87
2022/10/17 07:21:32;;;;;;;0.80;0.80;;;15.60;80.60;16.20;97242.00;;;;5075812;28;20552;-88
2022/10/17 07:24:01;;;;;;;0.73;0.73;;;15.70;80.60;16.20;97243.00;;;;5075842;28;20200;-88
2022/10/17 07:26:28;;;;;;;0.90;0.90;;;15.80;80.80;16.30;97244.00;;;;5075702;28;20231;-87
2022/10/17 07:28:56;;;;;;;1.27;1.17;;;15.80;80.80;16.40;97255.00;;;;5075336;28;20211;-88
2022/10/17 07:31:24;;;;;;;1.33;1.00;;;15.90;80.90;16.40;97245.00;;;;5076801;28;20277;-89
2022/10/17 07:33:51;;;;;;;1.00;1.00;;;15.90;80.90;16.50;97248.00;;;;5076067;28;20295;-88
2022/10/17 07:36:19;;;;;;;2.13;0.90;;;16.00;81.00;16.50;97256.00;;;;5075960;28;20214;-88
2022/10/17 07:38:46;;;;;;;1.23;1.20;;;16.00;81.00;16.60;97264.00;;;;5073734;28;20199;-88
2022/10/17 07:41:16;;;;;;;1.30;0.80;;;16.10;81.00;16.70;97266.00;;;;5076383;28;20232;-88
2022/10/17 07:43:43;;;;;;;1.20;1.20;;;16.20;81.10;16.70;97267.00;;;;5076433;28;20632;-88
2022/10/17 07:46:11;;;;;;;1.17;1.17;;;16.20;81.20;16.80;97262.00;;;;5059580;28;20255;-88
2022/10/17 07:48:39;;;;;;;2.33;1.30;;;16.30;81.30;16.80;97267.00;;;;5071086;28;20227;-88
2022/10/17 07:51:09;;;;;;;1.30;1.20;;;16.30;81.40;16.90;97271.00;;;;5058964;28;20287;-88
2022/10/17 07:53:41;;;;;;;1.27;1.10;;;16.40;81.40;17.00;97277.00;;;;5057942;28;20629;-87
2022/10/17 07:56:10;;;;;;;1.33;1.23;;;16.50;81.40;17.10;97277.00;;;;5060823;28;20185;-88
2022/10/17 07:58:50;;;;;;;1.57;1.40;;;16.50;81.40;17.20;97283.00;;;;5071873;28;20232;-88
2022/10/17 08:01:24;;;;;;;1.73;1.20;;;16.60;81.50;17.30;97285.00;;;;5065276;28;20195;-88
2022/10/17 08:03:51;;;;;;;2.10;1.60;;;16.70;81.60;17.40;97284.00;;;;5080824;28;20687;-88
2022/10/17 08:06:19;;;;;;;1.23;1.17;;;16.80;81.70;17.50;97287.00;;;;5058456;28;20225;-88
2022/10/17 08:08:46;;;;;;;1.57;1.47;;;16.80;81.70;17.60;97273.00;;;;5080214;28;20581;-88
2022/10/17 08:11:15;;;;;;;1.60;1.50;;;16.90;81.80;17.70;97282.00;;;;5075385;28;20203;-88
2022/10/17 08:13:43;;;;;;;1.80;1.70;;;17.00;81.80;17.80;97284.00;;;;5072833;28;20223;-86
2022/10/17 08:16:13;;;;;;;2.23;1.80;;;17.10;81.90;17.90;97278.00;;;;5074994;28;20208;-88
2022/10/17 08:18:45;;;;;;;2.70;1.83;;;17.20;81.80;18.00;97278.00;;;;5075037;28;20228;-89
2022/10/17 08:21:13;;;;;;;1.63;1.53;;;17.30;81.90;18.10;97283.00;;;;5075061;28;20196;-89
2022/10/17 08:23:40;;;;;;;2.20;2.00;;;17.40;81.90;18.20;97285.00;;;;5067865;28;20250;-88
2022/10/17 08:26:09;;;;;;;1.60;1.50;;;17.50;81.80;18.30;97288.00;;;;5074172;28;20224;-88
2022/10/17 08:28:38;;;;;;;2.30;2.10;;;17.60;81.80;18.40;97285.00;;;;5074766;28;20285;-88
2022/10/17 08:31:09;;;;;;;2.30;2.10;;;17.70;81.70;18.60;97291.00;;;;5074982;28;20200;-88
2022/10/17 08:33:37;;;;;;;2.20;2.00;;;17.80;81.60;18.60;97287.00;;;;5074482;28;20200;-88
2022/10/17 08:36:07;;;;;;;2.43;2.10;;;17.90;81.30;18.70;97293.00;;;;5074017;28;20286;-88
2022/10/17 08:38:36;;;;;;;2.60;1.87;;;18.00;81.10;18.80;97290.00;;;;5076707;28;20290;-89
2022/10/17 08:41:11;;;;;;;2.37;2.07;;;18.10;81.60;19.00;97293.00;;;;5074334;28;20196;-88
2022/10/17 08:43:56;;;;;;;2.73;2.53;;;18.20;80.70;19.10;97293.00;;;;5068052;28;20278;-89
2022/10/17 08:46:31;;;;;;;2.27;2.07;;;18.30;80.50;19.20;97296.00;;;;5073113;28;20306;-89
2022/10/17 08:49:02;;;;;;;2.80;2.07;;;18.50;80.40;19.30;97292.00;;;;5064614;28;20188;-89
2022/10/17 08:51:35;;;;;;;3.03;2.30;;;18.60;80.30;19.50;97292.00;;;;5062587;28;20196;-88
2022/10/17 08:54:12;;;;;;;2.57;2.37;;;18.70;80.20;19.60;97293.00;;;;5077031;28;20203;-88
2022/10/17 08:56:45;;;;;;;2.83;2.60;;;18.80;79.90;19.70;97293.00;;;;5077278;28;20635;-87
2022/10/17 08:59:17;;;;;;;4.20;2.53;;;18.90;79.60;19.90;97298.00;;;;5074035;28;20230;-88
2022/10/17 09:01:53;;;;;;;2.70;2.53;;;19.00;79.50;20.00;97300.00;;;;5073746;28;20282;-87
2022/10/17 09:04:57;;;;;;;2.77;2.40;;;19.20;79.40;20.10;97298.00;;;;5070828;28;20283;-88
2022/10/17 09:07:35;;;;;;;2.67;2.47;;;19.30;79.10;20.20;97296.00;;;;5071934;28;20339;-90
2022/10/17 09:10:16;;;;;;;3.77;3.27;;;19.40;78.60;20.30;97293.00;;;;5073910;28;20231;-89
2022/10/17 09:12:57;;;;;;;4.60;2.97;;;19.50;78.00;20.50;97294.00;;;;5068100;28;20208;-89
2022/10/17 09:15:43;;;;;;;2.70;2.50;;;19.70;78.30;20.60;97290.00;;;;5073604;28;20219;-90
2022/10/17 09:18:17;;;;;;;2.83;2.40;;;19.80;78.40;20.70;97294.00;;;;5071519;28;20216;-89
2022/10/17 09:20:51;;;;;;;8.43;3.00;;;19.90;78.00;20.90;97285.00;;;;5073453;28;20616;-89
2022/10/17 09:23:22;;;;;;;2.73;2.53;;;20.00;77.80;21.10;97290.00;;;;5069902;28;20288;-90
2022/10/17 09:25:55;;;;;;;2.97;2.60;;;20.20;78.00;21.30;97295.00;;;;5073116;28;20230;-89
2022/10/17 09:28:29;;;;;;;2.77;2.40;;;20.30;77.70;21.50;97285.00;;;;5072110;28;20251;-89
2022/10/17 09:31:01;;;;;;;2.50;2.20;;;20.50;77.20;21.70;97294.00;;;;5071918;28;20204;-89
2022/10/17 09:33:39;;;;;;;2.10;2.00;;;20.70;77.70;21.80;97289.00;;;;5067872;28;20278;-89
2022/10/17 09:36:15;;;;;;;3.13;2.27;;;20.80;77.80;22.00;97300.00;;;;5070031;28;20654;-89
2022/10/17 09:38:45;;;;;;;1.90;1.80;;;21.00;77.30;22.20;97300.00;;;;5070779;28;20234;-89
2022/10/17 09:41:34;;;;;;;2.17;2.00;;;21.20;77.20;22.30;97297.00;;;;5072564;28;20290;-89
2022/10/17 09:44:17;;;;;;;3.30;1.90;;;21.40;76.20;22.50;97304.00;;;;5070699;28;20311;-89
2022/10/17 09:47:11;;;;;;;3.03;2.00;;;21.60;76.20;22.60;97301.00;;;;5068904;28;20632;-89
2022/10/17 09:49:43;;;;;;;2.30;2.10;;;21.80;75.80;22.80;97307.00;;;;5069881;28;20211;-89
2022/10/17 09:52:15;;;;;;;2.07;1.97;;;22.00;76.10;23.00;97310.00;;;;5070111;28;20291;-89
2022/10/17 09:54:46;;;;;;;1.87;1.77;;;22.20;75.40;23.10;97309.00;;;;5061348;28;20197;-89
2022/10/17 09:57:16;;;;;;;1.97;1.77;;;22.40;74.70;23.30;97309.00;;;;5081613;22;20255;-84
2022/10/17 09:59:46;;;;;;;2.33;2.13;;;22.60;75.00;23.50;97312.00;;;;5029043;28;20207;-84
2022/10/17 10:02:21;;;;;;;1.70;1.60;;;22.80;74.50;23.60;97323.00;;;;5019012;28;20280;-84
2022/10/17 10:05:06;;;;;;;2.47;1.33;;;23.00;73.70;23.80;97318.00;;;;5025058;28;20230;-84
2022/10/17 10:07:38;;;;;;;2.00;1.50;;;23.20;71.30;24.00;97328.00;;;;5020431;28;20219;-84
2022/10/17 10:10:33;;;;;;;3.50;1.20;;;23.40;72.90;24.20;97333.00;;;;5023837;28;20207;-84
2022/10/17 10:13:16;;;;;;;1.80;1.30;;;23.60;71.40;24.30;97333.00;;;;5020427;28;20251;-84
2022/10/17 10:15:48;;;;;;;1.27;1.17;;;23.80;71.60;24.50;97329.00;;;;5017850;28;20235;-84
2022/10/17 10:18:33;;;;;;;1.20;1.20;;;24.00;71.20;24.70;97327.00;;;;5015842;28;20647;-83
2022/10/17 10:21:18;;;;;;;2.27;1.20;;;24.20;68.80;24.80;97339.00;;;;5030993;28;20228;-84
2022/10/17 10:24:06;;;;;;;1.13;1.00;;;24.40;69.70;25.00;97334.00;;;;5026242;28;20296;-84
2022/10/17 10:26:44;;;;;;;1.17;1.10;;;24.50;69.50;25.10;97331.00;;;;5024054;28;20217;-85
2022/10/17 10:29:27;;;;;;;1.20;1.10;;;24.70;68.50;25.20;97327.00;;;;5027768;28;20609;-85
2022/10/17 10:31:55;;;;;;;1.50;1.10;;;24.80;67.70;25.30;97328.00;;;;5027532;28;20267;-85
2022/10/17 10:34:27;;;;;;;2.03;1.00;;;24.90;67.80;25.40;97323.00;;;;5025649;28;20283;-86
2022/10/17 10:37:05;;;;;;;1.73;1.23;;;25.00;67.50;25.40;97327.00;;;;5029882;28;20282;-85
2022/10/17 10:39:50;;;;;;;1.20;1.00;;;25.10;66.60;25.40;97320.00;;;;5026691;28;20248;-84
2022/10/17 10:42:30;;;;;;;1.13;1.03;;;25.00;65.80;25.40;97323.00;;;;5020375;28;20275;-84
2022/10/17 10:45:04;;;;;;;1.10;1.10;;;25.00;65.80;25.30;97326.00;;;;5029443;28;20229;-85
2022/10/17 10:47:32;;;;;;;1.10;1.00;;;25.00;65.60;25.30;97315.00;;;;5027915;28;20296;-84
2022/10/17 10:50:24;;;;;;;1.10;1.00;;;24.90;65.20;25.20;97320.00;;;;5020975;28;20687;-84
2022/10/17 10:53:12;;;;;;;1.30;1.20;;;24.90;65.00;25.20;97328.00;;;;5027087;28;20263;-84
2022/10/17 10:55:46;;;;;;;1.77;1.17;;;24.80;64.30;25.10;97320.00;;;;5028102;28;20279;-85
2022/10/17 10:58:30;;;;;;;1.87;1.33;;;24.80;64.60;25.00;97320.00;;;;5026983;28;20210;-84
2022/10/17 11:01:04;;;;;;;2.27;1.20;;;24.70;64.30;25.00;97317.00;;;;5025025;28;20600;-84
2022/10/17 11:03:41;;;;;;;1.23;0.97;;;24.60;64.50;24.90;97312.00;;;;5029720;28;20273;-84
2022/10/17 11:06:19;;;;;;;0.90;0.90;;;24.60;64.50;24.90;97316.00;;;;5025861;28;20329;-84
2022/10/17 11:08:55;;;;;;;1.20;1.03;;;24.50;64.90;24.90;97317.00;;;;5030489;28;20242;-84
2022/10/17 11:11:32;;;;;;;1.30;1.20;;;24.50;64.70;24.90;97315.00;;;;5027473;28;20259;-84
2022/10/17 11:14:12;;;;;;;1.40;1.00;;;24.40;64.90;24.90;97309.00;;;;5027300;28;20228;-84
2022/10/17 11:16:47;;;;;;;1.53;0.93;;;24.40;65.20;24.80;97302.00;;;;5033215;28;20269;-85